createdAt,value
2023-05-21T00:00:10.851Z,14.48
2023-05-21T00:01:03.695Z,14.52
2023-05-21T00:01:36.134Z,14.60
2023-05-21T00:02:12.048Z,14.63
2023-05-21T00:02:44.522Z,14.90
2023-05-21T00:03:17.276Z,14.73
2023-05-21T00:03:50.144Z,14.27
2023-05-21T00:04:22.937Z,14.68
2023-05-21T00:04:56.180Z,14.27
2023-05-21T00:05:28.802Z,15.48
2023-05-21T00:06:04.110Z,14.98
2023-05-21T00:06:36.649Z,15.07
2023-05-21T00:07:09.453Z,15.13
2023-05-21T00:07:41.888Z,15.48
2023-05-21T00:08:14.432Z,14.43
2023-05-21T00:08:46.909Z,15.37
2023-05-21T00:09:19.293Z,14.30
2023-05-21T00:09:53.205Z,14.20
2023-05-21T00:10:25.912Z,14.52
2023-05-21T00:10:58.363Z,14.90
2023-05-21T00:11:30.871Z,14.52
2023-05-21T00:12:03.265Z,15.30
2023-05-21T00:12:36.235Z,14.77
2023-05-21T00:13:09.764Z,15.00
2023-05-21T00:13:42.235Z,14.75
2023-05-21T00:14:14.618Z,15.47
2023-05-21T00:14:46.963Z,14.80
2023-05-21T00:15:20.112Z,15.50
2023-05-21T00:15:52.632Z,15.27
2023-05-21T00:16:25.636Z,14.80
2023-05-21T00:16:58.097Z,14.90
2023-05-21T00:17:30.544Z,15.10
2023-05-21T00:18:03.892Z,14.35
2023-05-21T00:18:36.522Z,15.52
2023-05-21T00:19:10.656Z,14.10
2023-05-21T00:19:43.213Z,14.90
2023-05-21T00:20:16.667Z,14.30
2023-05-21T00:20:49.222Z,14.80
2023-05-21T00:21:26.473Z,15.25
2023-05-21T00:22:02.503Z,14.43
2023-05-21T00:22:36.461Z,14.75
2023-05-21T00:23:09.101Z,14.75
2023-05-21T00:23:43.028Z,14.43
2023-05-21T00:24:15.898Z,14.95
2023-05-21T00:24:48.274Z,13.50
2023-05-21T00:25:21.024Z,13.83
2023-05-21T00:25:54.009Z,13.43
2023-05-21T00:26:26.682Z,15.10
2023-05-21T00:27:02.513Z,14.98
2023-05-21T00:27:35.053Z,14.63
2023-05-21T00:28:07.463Z,14.30
2023-05-21T00:28:39.915Z,14.43
2023-05-21T00:29:12.420Z,14.82
2023-05-21T00:29:45.116Z,14.43
2023-05-21T00:30:17.490Z,14.30
2023-05-21T00:30:50.015Z,15.23
2023-05-21T00:31:22.808Z,14.52
2023-05-21T00:31:56.170Z,15.07
2023-05-21T00:32:28.704Z,14.73
2023-05-21T00:33:03.083Z,13.88
2023-05-21T00:33:35.746Z,13.63
2023-05-21T00:34:08.376Z,14.43
2023-05-21T00:34:41.098Z,14.23
2023-05-21T00:35:14.052Z,15.18
2023-05-21T00:35:46.514Z,14.18
2023-05-21T00:36:18.984Z,15.13
2023-05-21T00:36:53.710Z,14.90
2023-05-21T00:37:26.266Z,15.60
2023-05-21T00:37:59.557Z,14.68
2023-05-21T00:38:33.168Z,15.48
2023-05-21T00:39:06.071Z,14.95
2023-05-21T00:39:38.673Z,14.90
2023-05-21T00:40:11.921Z,14.45
2023-05-21T00:40:44.579Z,15.18
2023-05-21T00:41:17.382Z,14.70
2023-05-21T00:41:50.100Z,14.43
2023-05-21T00:42:27.678Z,14.20
2023-05-21T00:43:00.297Z,14.75
2023-05-21T00:43:32.849Z,15.63
2023-05-21T00:44:05.445Z,15.10
2023-05-21T00:44:37.944Z,14.50
2023-05-21T00:45:10.748Z,15.68
2023-05-21T00:45:47.676Z,14.70
2023-05-21T00:46:21.537Z,15.05
2023-05-21T00:46:54.332Z,14.55
2023-05-21T00:47:29.996Z,15.03
2023-05-21T00:48:04.521Z,14.93
2023-05-21T00:48:36.999Z,14.32
2023-05-21T00:49:10.065Z,15.57
2023-05-21T00:49:42.501Z,14.88
2023-05-21T00:50:15.354Z,15.70
2023-05-21T00:50:49.748Z,15.65
2023-05-21T00:51:22.290Z,15.35
2023-05-21T00:51:55.157Z,14.80
2023-05-21T00:52:27.884Z,14.73
2023-05-21T00:53:00.281Z,14.77
2023-05-21T00:53:35.352Z,14.85
2023-05-21T00:54:08.521Z,14.63
2023-05-21T00:54:41.551Z,14.93
2023-05-21T00:55:14.276Z,14.10
2023-05-21T00:55:47.099Z,15.13
2023-05-21T00:56:22.162Z,15.73
2023-05-21T00:56:55.025Z,15.38
2023-05-21T00:57:27.596Z,14.52
2023-05-21T00:58:00.009Z,15.65
2023-05-21T00:58:35.749Z,14.60
2023-05-21T00:59:08.535Z,14.50
2023-05-21T00:59:41.313Z,13.82
2023-05-21T01:00:14.812Z,16.17
2023-05-21T01:00:47.276Z,16.08
2023-05-21T01:01:20.026Z,14.80
2023-05-21T01:01:56.656Z,15.10
2023-05-21T01:02:29.111Z,15.00
2023-05-21T01:03:02.039Z,14.82
2023-05-21T01:03:38.746Z,14.68
2023-05-21T01:04:12.740Z,14.63
2023-05-21T01:04:45.757Z,15.00
2023-05-21T01:05:18.295Z,15.43
2023-05-21T01:05:53.489Z,15.05
2023-05-21T01:06:25.891Z,15.55
2023-05-21T01:06:59.242Z,14.80
2023-05-21T01:07:35.137Z,15.63
2023-05-21T01:08:08.164Z,14.82
2023-05-21T01:08:41.089Z,15.98
2023-05-21T01:09:13.520Z,15.63
2023-05-21T01:09:46.300Z,14.80
2023-05-21T01:10:18.797Z,15.30
2023-05-21T01:10:52.204Z,15.60
2023-05-21T01:11:34.877Z,14.93
2023-05-21T01:12:08.230Z,15.27
2023-05-21T01:12:42.990Z,14.88
2023-05-21T01:13:16.746Z,15.82
2023-05-21T01:13:50.256Z,14.90
2023-05-21T01:14:23.352Z,15.35
2023-05-21T01:14:56.588Z,14.88
2023-05-21T01:15:29.378Z,15.13
2023-05-21T01:16:02.033Z,15.27
2023-05-21T01:16:36.599Z,16.15
2023-05-21T01:17:10.728Z,17.05
2023-05-21T01:17:46.445Z,15.80
2023-05-21T01:18:20.372Z,15.10
2023-05-21T01:18:54.501Z,15.90
2023-05-21T01:19:31.265Z,15.60
2023-05-21T01:20:10.614Z,15.55
2023-05-21T01:20:48.325Z,14.63
2023-05-21T01:21:24.332Z,16.30
2023-05-21T01:21:57.906Z,15.80
2023-05-21T01:22:32.862Z,16.08
2023-05-21T01:23:05.662Z,16.15
2023-05-21T01:23:38.548Z,15.10
2023-05-21T01:24:11.870Z,14.52
2023-05-21T01:25:35.565Z,15.57
2023-05-21T01:26:08.889Z,15.98
2023-05-21T01:26:43.072Z,15.05
2023-05-21T01:27:15.508Z,15.90
2023-05-21T01:27:48.443Z,15.07
2023-05-21T01:28:20.774Z,15.02
2023-05-21T01:28:53.907Z,15.70
2023-05-21T01:29:26.888Z,14.88
2023-05-21T01:30:00.223Z,15.60
2023-05-21T01:30:32.786Z,15.93
2023-05-21T01:31:11.289Z,14.43
2023-05-21T01:31:43.880Z,15.73
2023-05-21T01:32:20.831Z,15.10
2023-05-21T01:32:59.309Z,16.03
2023-05-21T01:33:45.856Z,14.85
2023-05-21T01:34:19.981Z,16.33
2023-05-21T01:35:05.820Z,14.60
2023-05-21T01:35:56.666Z,15.48
2023-05-21T01:36:33.499Z,15.63
2023-05-21T01:37:29.163Z,15.73
2023-05-21T01:38:12.491Z,14.85
2023-05-21T01:38:58.030Z,15.98
2023-05-21T01:39:34.068Z,15.05
2023-05-21T01:40:18.666Z,15.50
2023-05-21T01:40:59.193Z,13.55
2023-05-21T01:41:35.102Z,14.77
2023-05-21T01:42:09.663Z,14.75
2023-05-21T01:42:44.809Z,15.70
2023-05-21T01:43:18.390Z,14.73
2023-05-21T01:43:51.810Z,15.27
2023-05-21T01:44:26.941Z,15.80
2023-05-21T01:45:00.280Z,15.45
2023-05-21T01:45:33.876Z,14.98
2023-05-21T01:46:08.407Z,15.90
2023-05-21T01:46:41.672Z,14.77
2023-05-21T01:47:14.678Z,15.90
2023-05-21T01:47:48.644Z,16.05
2023-05-21T01:48:21.305Z,16.30
2023-05-21T01:48:55.809Z,15.10
2023-05-21T01:49:28.702Z,14.60
2023-05-21T01:50:01.773Z,16.05
2023-05-21T01:50:35.512Z,15.18
2023-05-21T01:51:08.306Z,14.82
2023-05-21T01:51:41.160Z,15.27
2023-05-21T01:52:15.042Z,15.20
2023-05-21T01:52:54.243Z,15.73
2023-05-21T01:53:26.636Z,15.82
2023-05-21T01:53:59.723Z,15.95
2023-05-21T01:54:32.328Z,15.30
2023-05-21T01:55:04.783Z,15.63
2023-05-21T01:55:40.181Z,14.85
2023-05-21T01:56:13.774Z,15.80
2023-05-21T01:56:46.326Z,14.82
2023-05-21T01:57:19.079Z,14.70
2023-05-21T01:57:53.720Z,15.13
2023-05-21T01:58:26.219Z,16.10
2023-05-21T01:59:00.819Z,15.98
2023-05-21T01:59:33.627Z,16.08
2023-05-21T02:00:06.480Z,15.95
2023-05-21T02:00:47.937Z,14.50
2023-05-21T02:01:20.947Z,15.35
2023-05-21T02:01:53.526Z,15.52
2023-05-21T02:02:26.108Z,15.27
2023-05-21T02:02:59.309Z,15.63
2023-05-21T02:03:31.993Z,15.30
2023-05-21T02:04:04.977Z,15.95
2023-05-21T02:04:41.568Z,16.17
2023-05-21T02:05:14.475Z,15.73
2023-05-21T02:05:47.509Z,15.88
2023-05-21T02:06:19.948Z,15.55
2023-05-21T02:06:52.460Z,15.60
2023-05-21T02:07:24.990Z,16.08
2023-05-21T02:07:57.425Z,15.88
2023-05-21T02:08:30.378Z,15.07
2023-05-21T02:09:03.897Z,16.17
2023-05-21T02:09:36.529Z,15.32
2023-05-21T02:10:09.109Z,16.23
2023-05-21T02:10:41.627Z,16.08
2023-05-21T02:11:14.249Z,16.77
2023-05-21T02:11:46.753Z,15.63
2023-05-21T02:12:19.074Z,15.85
2023-05-21T02:12:51.618Z,15.88
2023-05-21T02:13:26.866Z,15.32
2023-05-21T02:14:00.187Z,16.17
2023-05-21T02:14:33.943Z,15.13
2023-05-21T02:15:06.766Z,15.48
2023-05-21T02:15:39.331Z,16.30
2023-05-21T02:16:15.087Z,16.17
2023-05-21T02:16:47.731Z,15.05
2023-05-21T02:17:20.120Z,16.33
2023-05-21T02:17:53.335Z,16.30
2023-05-21T02:18:26.566Z,15.45
2023-05-21T02:19:00.917Z,14.95
2023-05-21T02:19:33.543Z,15.70
2023-05-21T02:20:13.114Z,15.95
2023-05-21T02:20:46.034Z,16.20
2023-05-21T02:21:18.398Z,16.55
2023-05-21T02:21:50.848Z,14.95
2023-05-21T02:22:23.396Z,15.18
2023-05-21T02:22:55.948Z,15.45
2023-05-21T02:23:28.265Z,14.90
2023-05-21T02:24:00.858Z,14.60
2023-05-21T02:24:33.510Z,14.75
2023-05-21T02:25:07.750Z,15.23
2023-05-21T02:25:40.396Z,14.90
2023-05-21T02:26:12.817Z,14.98
2023-05-21T02:26:45.175Z,14.85
2023-05-21T02:27:17.980Z,16.42
2023-05-21T02:27:53.908Z,14.43
2023-05-21T02:28:26.838Z,14.52
2023-05-21T02:28:59.387Z,14.23
2023-05-21T02:29:32.262Z,15.02
2023-05-21T02:30:05.746Z,14.60
2023-05-21T02:30:38.153Z,14.40
2023-05-21T02:31:10.653Z,14.05
2023-05-21T02:31:43.562Z,15.55
2023-05-21T02:32:17.225Z,14.95
2023-05-21T02:32:50.375Z,15.13
2023-05-21T02:33:23.310Z,15.07
2023-05-21T02:33:56.644Z,14.93
2023-05-21T02:34:32.551Z,14.30
2023-05-21T02:35:05.502Z,14.45
2023-05-21T02:35:38.732Z,14.35
2023-05-21T02:36:15.686Z,14.23
2023-05-21T02:36:52.715Z,14.23
2023-05-21T02:37:28.073Z,14.10
2023-05-21T02:38:03.372Z,15.23
2023-05-21T02:38:36.195Z,14.82
2023-05-21T02:39:09.433Z,13.32
2023-05-21T02:39:41.836Z,13.40
2023-05-21T02:40:14.608Z,13.35
2023-05-21T02:40:46.977Z,14.10
2023-05-21T02:41:19.457Z,13.95
2023-05-21T02:41:51.896Z,13.73
2023-05-21T02:42:24.280Z,13.60
2023-05-21T02:42:57.239Z,14.15
2023-05-21T02:43:29.758Z,14.50
2023-05-21T02:44:02.365Z,13.48
2023-05-21T02:44:34.682Z,12.80
2023-05-21T02:45:10.502Z,13.90
2023-05-21T02:45:44.516Z,13.50
2023-05-21T02:46:17.022Z,13.85
2023-05-21T02:46:49.483Z,14.15
2023-05-21T02:47:24.111Z,14.83
2023-05-21T02:47:56.673Z,13.95
2023-05-21T02:48:29.056Z,14.38
2023-05-21T02:49:01.475Z,14.68
2023-05-21T02:49:34.418Z,14.50
2023-05-21T02:50:07.886Z,14.10
2023-05-21T02:50:43.765Z,13.65
2023-05-21T02:51:16.393Z,13.38
2023-05-21T02:51:49.340Z,13.52
2023-05-21T02:52:24.929Z,13.55
2023-05-21T02:53:00.292Z,14.53
2023-05-21T02:53:33.558Z,13.43
2023-05-21T02:54:05.968Z,13.20
2023-05-21T02:54:38.525Z,15.10
2023-05-21T02:55:11.128Z,12.80
2023-05-21T02:55:43.575Z,13.52
2023-05-21T02:56:16.158Z,14.32
2023-05-21T02:56:48.932Z,14.10
2023-05-21T02:57:21.472Z,12.88
2023-05-21T02:57:53.832Z,14.02
2023-05-21T02:58:26.654Z,14.17
2023-05-21T02:59:00.182Z,14.20
2023-05-21T02:59:33.000Z,14.05
2023-05-21T03:00:06.560Z,14.80
2023-05-21T03:00:40.005Z,14.43
2023-05-21T03:01:12.477Z,13.90
2023-05-21T03:01:45.534Z,14.13
2023-05-21T03:02:18.262Z,13.07
2023-05-21T03:02:51.011Z,13.75
2023-05-21T03:03:23.917Z,13.35
2023-05-21T03:03:56.439Z,13.50
2023-05-21T03:04:29.762Z,13.88
2023-05-21T03:05:03.092Z,14.32
2023-05-21T03:05:35.969Z,14.93
2023-05-21T03:06:10.456Z,13.52
2023-05-21T03:06:43.065Z,14.13
2023-05-21T03:07:16.393Z,13.88
2023-05-21T03:07:51.300Z,13.55
2023-05-21T03:08:23.757Z,13.63
2023-05-21T03:08:56.910Z,13.57
2023-05-21T03:09:29.574Z,15.40
2023-05-21T03:10:03.320Z,14.18
2023-05-21T03:10:36.585Z,14.55
2023-05-21T03:11:08.958Z,14.52
2023-05-21T03:11:42.955Z,13.70
2023-05-21T03:12:15.946Z,13.98
2023-05-21T03:12:48.556Z,13.43
2023-05-21T03:13:22.159Z,13.63
2023-05-21T03:13:54.601Z,14.23
2023-05-21T03:14:29.193Z,14.48
2023-05-21T03:15:01.614Z,14.70
2023-05-21T03:15:36.110Z,13.35
2023-05-21T03:16:09.039Z,14.20
2023-05-21T03:16:41.981Z,14.48
2023-05-21T03:17:15.335Z,14.80
2023-05-21T03:17:48.615Z,14.48
2023-05-21T03:18:21.056Z,14.50
2023-05-21T03:18:54.618Z,13.90
2023-05-21T03:19:28.111Z,14.90
2023-05-21T03:20:01.633Z,14.25
2023-05-21T03:20:34.185Z,14.10
2023-05-21T03:21:06.800Z,14.23
2023-05-21T03:21:39.425Z,14.50
2023-05-21T03:22:11.996Z,15.30
2023-05-21T03:22:45.107Z,14.23
2023-05-21T03:23:18.234Z,13.93
2023-05-21T03:23:51.722Z,14.20
2023-05-21T03:24:24.147Z,13.52
2023-05-21T03:24:58.443Z,14.43
2023-05-21T03:25:30.994Z,13.98
2023-05-21T03:26:03.575Z,14.40
2023-05-21T03:26:36.416Z,13.93
2023-05-21T03:27:09.186Z,14.05
2023-05-21T03:27:41.701Z,15.23
2023-05-21T03:28:28.534Z,14.77
2023-05-21T03:29:01.754Z,13.70
2023-05-21T03:29:34.997Z,15.35
2023-05-21T03:30:09.802Z,14.93
2023-05-21T03:30:56.848Z,14.88
2023-05-21T03:31:49.965Z,14.27
2023-05-21T03:32:22.843Z,15.13
2023-05-21T03:32:56.599Z,14.88
2023-05-21T03:33:29.107Z,15.40
2023-05-21T03:34:01.512Z,14.93
2023-05-21T03:34:36.478Z,14.57
2023-05-21T03:35:09.038Z,14.82
2023-05-21T03:35:41.912Z,14.55
2023-05-21T03:36:14.681Z,14.68
2023-05-21T03:36:47.402Z,14.30
2023-05-21T03:37:21.142Z,15.07
2023-05-21T03:37:53.635Z,13.77
2023-05-21T03:38:26.469Z,14.00
2023-05-21T03:39:00.444Z,14.43
2023-05-21T03:39:33.208Z,14.57
2023-05-21T03:40:06.695Z,15.23
2023-05-21T03:40:39.225Z,13.73
2023-05-21T03:41:12.101Z,15.18
2023-05-21T03:41:46.231Z,14.10
2023-05-21T03:42:26.447Z,13.95
2023-05-21T03:43:00.510Z,14.30
2023-05-21T03:43:33.379Z,14.10
2023-05-21T03:44:06.390Z,14.18
2023-05-21T03:44:50.936Z,13.73
2023-05-21T03:45:44.345Z,14.00
2023-05-21T03:46:37.363Z,15.15
2023-05-21T03:47:13.861Z,13.93
2023-05-21T03:47:46.792Z,14.02
2023-05-21T03:48:19.481Z,14.85
2023-05-21T03:48:52.080Z,13.88
2023-05-21T03:49:28.900Z,14.48
2023-05-21T03:50:03.188Z,14.27
2023-05-21T03:50:35.577Z,14.18
2023-05-21T03:51:08.071Z,14.43
2023-05-21T03:51:41.033Z,14.80
2023-05-21T03:52:16.647Z,14.20
2023-05-21T03:52:49.150Z,13.45
2023-05-21T03:53:21.952Z,14.63
2023-05-21T03:53:54.465Z,14.15
2023-05-21T03:54:27.286Z,15.18
2023-05-21T03:55:04.037Z,13.93
2023-05-21T03:55:36.755Z,13.90
2023-05-21T03:56:09.487Z,13.52
2023-05-21T03:56:41.979Z,13.88
2023-05-21T03:57:14.738Z,14.23
2023-05-21T03:57:47.140Z,14.45
2023-05-21T03:58:20.494Z,13.45
2023-05-21T03:58:53.314Z,13.98
2023-05-21T03:59:25.774Z,14.20
2023-05-21T03:59:59.623Z,14.65
2023-05-21T04:00:37.822Z,13.65
2023-05-21T04:01:11.171Z,14.07
2023-05-21T04:01:43.975Z,13.90
2023-05-21T04:02:18.929Z,14.27
2023-05-21T04:02:52.068Z,14.48
2023-05-21T04:03:25.365Z,13.65
2023-05-21T04:03:58.949Z,13.85
2023-05-21T04:04:34.057Z,13.95
2023-05-21T04:05:07.387Z,14.27
2023-05-21T04:05:39.795Z,14.27
2023-05-21T04:06:12.143Z,14.05
2023-05-21T04:06:45.595Z,14.10
2023-05-21T04:07:19.570Z,13.65
2023-05-21T04:07:52.920Z,13.85
2023-05-21T04:08:25.732Z,13.10
2023-05-21T04:08:59.246Z,13.77
2023-05-21T04:09:31.728Z,13.38
2023-05-21T04:10:04.695Z,13.85
2023-05-21T04:10:37.893Z,13.45
2023-05-21T04:11:10.350Z,13.25
2023-05-21T04:11:42.931Z,13.20
2023-05-21T04:12:16.370Z,13.77
2023-05-21T04:12:52.739Z,13.93
2023-05-21T04:13:26.152Z,13.02
2023-05-21T04:13:58.688Z,13.35
2023-05-21T04:14:31.026Z,13.30
2023-05-21T04:15:03.624Z,12.77
2023-05-21T04:15:37.100Z,13.13
2023-05-21T04:16:09.778Z,13.52
2023-05-21T04:16:44.338Z,13.50
2023-05-21T04:17:17.219Z,13.50
2023-05-21T04:17:50.485Z,12.77
2023-05-21T04:18:26.203Z,12.95
2023-05-21T04:18:58.679Z,13.95
2023-05-21T04:19:33.199Z,13.60
2023-05-21T04:20:06.816Z,13.13
2023-05-21T04:20:39.318Z,13.75
2023-05-21T04:21:12.164Z,13.50
2023-05-21T04:21:45.272Z,12.80
2023-05-21T04:22:20.090Z,14.30
2023-05-21T04:22:52.792Z,12.90
2023-05-21T04:23:25.369Z,12.93
2023-05-21T04:24:01.012Z,13.23
2023-05-21T04:24:43.236Z,13.13
2023-05-21T04:25:23.490Z,13.80
2023-05-21T04:25:55.996Z,12.32
2023-05-21T04:26:29.791Z,14.07
2023-05-21T04:27:03.598Z,14.75
2023-05-21T04:27:37.208Z,13.35
2023-05-21T04:28:09.656Z,12.68
2023-05-21T04:28:42.903Z,12.75
2023-05-21T04:29:18.330Z,13.30
2023-05-21T04:29:51.125Z,12.70
2023-05-21T04:30:24.311Z,13.00
2023-05-21T04:30:56.914Z,14.50
2023-05-21T04:31:32.554Z,13.52
2023-05-21T04:32:06.865Z,12.27
2023-05-21T04:32:40.015Z,13.23
2023-05-21T04:33:18.634Z,12.45
2023-05-21T04:33:51.427Z,12.95
2023-05-21T04:34:24.045Z,13.02
2023-05-21T04:34:56.560Z,13.60
2023-05-21T04:35:29.480Z,12.68
2023-05-21T04:36:02.218Z,13.02
2023-05-21T04:36:34.704Z,13.63
2023-05-21T04:37:07.252Z,13.00
2023-05-21T04:37:42.339Z,13.07
2023-05-21T04:38:19.936Z,12.95
2023-05-21T04:38:52.498Z,12.52
2023-05-21T04:39:24.995Z,13.25
2023-05-21T04:39:58.127Z,12.65
2023-05-21T04:40:31.842Z,13.00
2023-05-21T04:41:05.173Z,12.70
2023-05-21T04:41:38.716Z,13.88
2023-05-21T04:42:11.555Z,13.00
2023-05-21T04:42:48.993Z,13.32
2023-05-21T04:43:27.581Z,12.82
2023-05-21T04:44:02.698Z,12.65
2023-05-21T04:44:38.616Z,13.05
2023-05-21T04:45:11.796Z,12.25
2023-05-21T04:45:46.722Z,13.02
2023-05-21T04:46:19.253Z,12.80
2023-05-21T04:46:53.019Z,12.55
2023-05-21T04:47:25.733Z,13.13
2023-05-21T04:48:00.896Z,12.93
2023-05-21T04:48:35.020Z,12.23
2023-05-21T04:49:07.918Z,12.95
2023-05-21T04:49:40.584Z,12.20
2023-05-21T04:50:12.981Z,11.90
2023-05-21T04:50:45.378Z,13.35
2023-05-21T04:51:18.223Z,12.55
2023-05-21T04:51:50.829Z,12.60
2023-05-21T04:52:25.377Z,12.13
2023-05-21T04:52:59.037Z,12.45
2023-05-21T04:53:32.194Z,13.10
2023-05-21T04:54:04.840Z,13.35
2023-05-21T04:54:39.549Z,11.55
2023-05-21T04:55:12.800Z,12.40
2023-05-21T04:55:45.250Z,12.32
2023-05-21T04:56:18.791Z,11.40
2023-05-21T04:56:52.665Z,12.52
2023-05-21T04:57:25.221Z,13.20
2023-05-21T04:57:57.758Z,12.35
2023-05-21T04:58:30.321Z,13.10
2023-05-21T04:59:05.226Z,13.32
2023-05-21T04:59:39.851Z,12.55
2023-05-21T05:00:13.123Z,12.30
2023-05-21T05:00:51.230Z,12.48
2023-05-21T05:01:24.126Z,12.18
2023-05-21T05:01:56.680Z,11.25
2023-05-21T05:02:29.213Z,11.93
2023-05-21T05:03:02.076Z,12.97
2023-05-21T05:03:35.070Z,12.27
2023-05-21T05:04:08.011Z,12.25
2023-05-21T05:04:41.508Z,12.30
2023-05-21T05:05:14.051Z,13.07
2023-05-21T05:05:46.597Z,12.95
2023-05-21T05:06:19.364Z,12.25
2023-05-21T05:06:52.759Z,12.32
2023-05-21T05:07:25.193Z,13.20
2023-05-21T05:07:58.623Z,12.30
2023-05-21T05:08:31.809Z,12.40
2023-05-21T05:09:04.965Z,12.15
2023-05-21T05:09:37.387Z,12.45
2023-05-21T05:10:09.970Z,13.35
2023-05-21T05:10:42.783Z,11.98
2023-05-21T05:11:15.170Z,12.75
2023-05-21T05:11:47.605Z,12.55
2023-05-21T05:12:20.025Z,12.75
2023-05-21T05:12:52.571Z,12.38
2023-05-21T05:13:25.206Z,12.40
2023-05-21T05:13:58.374Z,12.80
2023-05-21T05:14:30.843Z,12.52
2023-05-21T05:15:03.791Z,13.32
2023-05-21T05:15:37.458Z,12.55
2023-05-21T05:16:10.187Z,13.32
2023-05-21T05:16:43.261Z,12.18
2023-05-21T05:17:16.357Z,13.02
2023-05-21T05:17:50.917Z,11.88
2023-05-21T05:18:23.615Z,12.43
2023-05-21T05:18:56.472Z,12.57
2023-05-21T05:19:29.435Z,12.97
2023-05-21T05:20:02.389Z,12.75
2023-05-21T05:20:35.068Z,13.52
2023-05-21T05:21:07.498Z,12.30
2023-05-21T05:21:40.066Z,12.45
2023-05-21T05:22:13.598Z,13.35
2023-05-21T05:22:47.737Z,13.77
2023-05-21T05:23:20.169Z,11.88
2023-05-21T05:23:52.736Z,13.02
2023-05-21T05:24:29.067Z,12.75
2023-05-21T05:25:02.252Z,13.50
2023-05-21T05:25:35.185Z,12.70
2023-05-21T05:26:07.804Z,13.00
2023-05-21T05:26:40.670Z,12.82
2023-05-21T05:27:13.130Z,12.98
2023-05-21T05:27:45.559Z,12.55
2023-05-21T05:28:18.431Z,13.48
2023-05-21T05:28:50.995Z,12.20
2023-05-21T05:29:24.549Z,12.52
2023-05-21T05:29:57.177Z,12.32
2023-05-21T05:30:29.960Z,13.67
2023-05-21T05:31:09.456Z,12.38
2023-05-21T05:31:42.199Z,12.43
2023-05-21T05:32:14.685Z,13.40
2023-05-21T05:32:47.299Z,13.27
2023-05-21T05:33:19.760Z,12.57
2023-05-21T05:33:52.336Z,13.15
2023-05-21T05:34:25.213Z,12.55
2023-05-21T05:34:57.886Z,13.38
2023-05-21T05:35:30.914Z,12.40
2023-05-21T05:36:03.296Z,12.23
2023-05-21T05:36:35.801Z,11.82
2023-05-21T05:37:09.063Z,12.32
2023-05-21T05:37:41.695Z,12.85
2023-05-21T05:38:14.437Z,12.75
2023-05-21T05:38:48.165Z,11.98
2023-05-21T05:39:22.395Z,12.82
2023-05-21T05:39:56.120Z,12.45
2023-05-21T05:40:28.543Z,13.05
2023-05-21T05:41:01.418Z,11.65
2023-05-21T05:41:33.936Z,12.97
2023-05-21T05:42:06.481Z,11.40
2023-05-21T05:42:38.867Z,12.65
2023-05-21T05:43:17.026Z,12.15
2023-05-21T05:43:49.687Z,12.13
2023-05-21T05:44:23.099Z,12.27
2023-05-21T05:44:56.271Z,12.80
2023-05-21T05:45:29.079Z,11.90
2023-05-21T05:46:01.880Z,12.10
2023-05-21T05:46:34.799Z,12.23
2023-05-21T05:47:11.138Z,12.20
2023-05-21T05:47:45.365Z,12.70
2023-05-21T05:48:18.327Z,12.60
2023-05-21T05:48:50.827Z,13.00
2023-05-21T05:49:23.592Z,13.15
2023-05-21T05:49:56.579Z,12.93
2023-05-21T05:50:28.967Z,12.98
2023-05-21T05:51:01.812Z,13.20
2023-05-21T05:51:34.431Z,12.82
2023-05-21T05:52:07.474Z,13.27
2023-05-21T05:52:39.955Z,13.13
2023-05-21T05:53:13.751Z,14.30
2023-05-21T05:53:46.126Z,12.40
2023-05-21T05:54:19.668Z,13.32
2023-05-21T05:54:52.342Z,13.02
2023-05-21T05:55:25.506Z,12.75
2023-05-21T05:55:58.934Z,12.93
2023-05-21T05:56:31.258Z,13.73
2023-05-21T05:57:03.776Z,12.80
2023-05-21T05:57:36.428Z,12.57
2023-05-21T05:58:14.054Z,12.30
2023-05-21T05:59:02.578Z,12.98
2023-05-21T05:59:36.132Z,12.57
2023-05-21T06:00:12.132Z,12.98
2023-05-21T06:00:52.931Z,12.60
2023-05-21T06:01:26.529Z,13.35
2023-05-21T06:01:59.345Z,12.40
2023-05-21T06:02:32.328Z,12.63
2023-05-21T06:03:05.470Z,13.77
2023-05-21T06:03:38.480Z,12.70
2023-05-21T06:04:20.128Z,13.93
2023-05-21T06:04:53.644Z,12.43
2023-05-21T06:05:26.229Z,12.45
2023-05-21T06:05:58.672Z,13.13
2023-05-21T06:06:35.367Z,13.20
2023-05-21T06:07:08.656Z,13.30
2023-05-21T06:07:41.818Z,12.38
2023-05-21T06:08:15.708Z,12.85
2023-05-21T06:08:48.513Z,13.82
2023-05-21T06:09:22.468Z,12.07
2023-05-21T06:09:55.099Z,12.63
2023-05-21T06:10:27.833Z,11.80
2023-05-21T06:11:00.668Z,12.57
2023-05-21T06:11:33.064Z,12.90
2023-05-21T06:12:12.196Z,13.40
2023-05-21T06:12:47.113Z,11.43
2023-05-21T06:13:19.896Z,13.13
2023-05-21T06:13:52.865Z,12.75
2023-05-21T06:14:25.456Z,12.45
2023-05-21T06:14:58.380Z,12.98
2023-05-21T06:15:30.807Z,12.70
2023-05-21T06:16:04.191Z,12.85
2023-05-21T06:16:37.476Z,12.50
2023-05-21T06:17:10.078Z,13.60
2023-05-21T06:17:42.604Z,12.65
2023-05-21T06:18:17.570Z,13.65
2023-05-21T06:18:50.336Z,13.80
2023-05-21T06:19:22.817Z,13.15
2023-05-21T06:19:55.418Z,13.23
2023-05-21T06:20:28.004Z,12.13
2023-05-21T06:21:00.609Z,12.73
2023-05-21T06:21:33.806Z,12.00
2023-05-21T06:22:07.919Z,13.27
2023-05-21T06:22:40.367Z,13.20
2023-05-21T06:23:14.698Z,13.07
2023-05-21T06:23:49.065Z,11.70
2023-05-21T06:24:21.484Z,12.90
2023-05-21T06:24:53.955Z,12.75
2023-05-21T06:25:26.308Z,12.57
2023-05-21T06:25:59.122Z,12.82
2023-05-21T06:26:32.443Z,12.70
2023-05-21T06:27:05.692Z,13.30
2023-05-21T06:27:39.050Z,12.77
2023-05-21T06:28:18.524Z,13.23
2023-05-21T06:28:51.451Z,12.52
2023-05-21T06:29:24.329Z,12.00
2023-05-21T06:29:57.780Z,12.90
2023-05-21T06:30:30.697Z,12.35
2023-05-21T06:31:03.221Z,13.00
2023-05-21T06:31:37.502Z,12.10
2023-05-21T06:32:10.138Z,12.53
2023-05-21T06:32:43.677Z,11.93
2023-05-21T06:33:16.608Z,11.57
2023-05-21T06:33:50.150Z,12.52
2023-05-21T06:34:22.851Z,11.90
2023-05-21T06:34:55.351Z,12.07
2023-05-21T06:35:28.625Z,12.15
2023-05-21T06:36:01.754Z,11.95
2023-05-21T06:36:35.221Z,12.85
2023-05-21T06:37:07.764Z,12.55
2023-05-21T06:37:40.532Z,13.57
2023-05-21T06:38:13.370Z,12.05
2023-05-21T06:38:45.781Z,12.38
2023-05-21T06:39:18.373Z,13.43
2023-05-21T06:39:50.993Z,12.77
2023-05-21T06:40:23.495Z,11.98
2023-05-21T06:40:59.745Z,11.50
2023-05-21T06:41:51.490Z,11.63
2023-05-21T06:42:44.232Z,12.32
2023-05-21T06:43:42.649Z,12.10
2023-05-21T06:44:33.801Z,12.53
2023-05-21T06:45:16.417Z,12.15
2023-05-21T06:45:50.346Z,12.45
2023-05-21T06:46:41.602Z,13.07
2023-05-21T06:47:14.942Z,12.35
2023-05-21T06:47:47.330Z,12.40
2023-05-21T06:48:19.837Z,12.05
2023-05-21T06:48:53.597Z,12.52
2023-05-21T06:49:26.795Z,11.85
2023-05-21T06:50:00.045Z,11.73
2023-05-21T06:50:32.853Z,12.37
2023-05-21T06:51:05.637Z,18.25
2023-05-21T06:51:38.077Z,12.10
2023-05-21T06:52:11.577Z,12.43
2023-05-21T06:52:43.994Z,12.38
2023-05-21T06:53:16.622Z,11.45
2023-05-21T06:53:51.211Z,11.88
2023-05-21T06:54:26.130Z,11.60
2023-05-21T06:54:59.438Z,12.75
2023-05-21T06:55:35.427Z,11.90
2023-05-21T06:56:19.575Z,11.97
2023-05-21T06:56:52.149Z,11.95
2023-05-21T06:57:24.705Z,12.07
2023-05-21T06:57:57.853Z,11.95
2023-05-21T06:58:31.941Z,12.15
2023-05-21T06:59:04.249Z,12.57
2023-05-21T06:59:36.775Z,12.48
2023-05-21T07:00:09.629Z,11.75
2023-05-21T07:00:43.536Z,13.00
2023-05-21T07:01:17.249Z,12.43
2023-05-21T07:01:49.730Z,12.67
2023-05-21T07:02:22.378Z,11.85
2023-05-21T07:02:55.448Z,12.15
2023-05-21T07:03:28.420Z,12.23
2023-05-21T07:04:00.934Z,11.63
2023-05-21T07:04:35.469Z,12.05
2023-05-21T07:05:08.252Z,11.30
2023-05-21T07:05:40.963Z,11.77
2023-05-21T07:06:13.445Z,12.88
2023-05-21T07:06:46.490Z,11.95
2023-05-21T07:07:18.915Z,12.43
2023-05-21T07:07:51.345Z,12.27
2023-05-21T07:08:24.291Z,11.95
2023-05-21T07:08:57.158Z,12.60
2023-05-21T07:09:30.062Z,12.10
2023-05-21T07:10:02.933Z,11.88
2023-05-21T07:10:35.534Z,12.48
2023-05-21T07:11:08.410Z,12.27
2023-05-21T07:11:41.012Z,12.35
2023-05-21T07:12:15.268Z,11.50
2023-05-21T07:12:47.860Z,11.57
2023-05-21T07:13:20.810Z,11.40
2023-05-21T07:13:53.698Z,12.27
2023-05-21T07:14:27.118Z,12.40
2023-05-21T07:14:59.602Z,12.15
2023-05-21T07:15:33.946Z,11.18
2023-05-21T07:16:07.882Z,11.73
2023-05-21T07:16:41.737Z,11.88
2023-05-21T07:17:14.494Z,12.07